Time;durP1;ratioP1;P1;durP2;ratioP2;P2;SDS_P1;SDS_P2;PMS_P1;PMS_P2;Temp;Humidity;BMP_temperature;BMP_pressure;BME280_temperature;BME280_humidity;BME280_pressure;Samples;Min_cycle;Max_cycle;Signal;HPM_P1;HPM_P2
2021/09/20 00:01:55;;;;;;;;;1.50;1.50;;;;;16.91;68.11;100968.25;5056061;28;69642;-60
2021/09/20 00:04:20;;;;;;;;;3.00;0.25;;;;;16.86;68.03;100964.47;5057132;28;45364;-60
2021/09/20 00:06:45;;;;;;;;;2.00;2.00;;;;;16.82;68.48;100965.78;5056183;28;67575;-60
2021/09/20 00:09:11;;;;;;;;;1.00;1.00;;;;;16.73;68.25;100957.81;5056195;28;45485;-60
2021/09/20 00:11:36;;;;;;;;;1.00;1.00;;;;;16.70;68.40;100963.47;5056634;28;51031;-61
2021/09/20 00:14:01;;;;;;;;;1.00;1.00;;;;;16.67;68.49;100963.78;5056806;28;45439;-60
2021/09/20 00:16:27;;;;;;;;;1.25;0.75;;;;;16.61;68.26;100967.09;5057014;28;45730;-60
2021/09/20 00:18:52;;;;;;;;;0.00;0.00;;;;;16.58;68.25;100964.78;5056807;28;45436;-60
2021/09/20 00:21:18;;;;;;;;;2.00;0.50;;;;;16.53;68.56;100962.63;5056336;28;46065;-61
2021/09/20 00:23:43;;;;;;;;;1.00;1.00;;;;;16.51;68.58;100963.78;5056735;28;45221;-60
2021/09/20 00:26:09;;;;;;;;;1.00;1.00;;;;;16.50;68.74;100967.41;5038350;28;55865;-60
2021/09/20 00:28:34;;;;;;;;;2.25;1.00;;;;;16.50;68.86;100962.13;5056728;28;45565;-60
2021/09/20 00:30:59;;;;;;;;;2.75;1.00;;;;;16.47;68.91;100973.91;5056450;28;46565;-59
2021/09/20 00:33:25;;;;;;;;;5.00;1.75;;;;;16.45;69.08;100965.28;5055595;28;69029;-60
2021/09/20 00:35:50;;;;;;;;;2.25;1.00;;;;;16.42;68.98;100973.56;5056131;28;51879;-60
2021/09/20 00:38:16;;;;;;;;;0.50;0.25;;;;;16.41;69.00;100972.75;5038072;28;56221;-60
2021/09/20 00:40:41;;;;;;;;;0.25;0.00;;;;;16.39;69.43;100965.94;5056410;28;48142;-60
2021/09/20 00:43:06;;;;;;;;;1.75;1.00;;;;;16.37;69.57;100968.75;5055676;28;68024;-60
2021/09/20 00:45:32;;;;;;;;;1.75;0.50;;;;;16.35;69.47;100970.75;5056215;28;48750;-60
2021/09/20 00:47:57;;;;;;;;;1.00;1.00;;;;;16.34;69.77;100973.53;5056350;28;45345;-60
2021/09/20 00:50:22;;;;;;;;;1.25;1.00;;;;;16.31;69.65;100975.53;5055393;28;72227;-60
2021/09/20 00:52:48;;;;;;;;;1.00;1.00;;;;;16.31;69.72;100975.53;5055445;28;68396;-60
2021/09/20 00:55:13;;;;;;;;;1.00;1.00;;;;;16.30;69.72;100965.91;5038398;28;45438;-61
2021/09/20 00:57:43;;;;;;;;;1.00;1.00;;;;;16.29;69.66;100966.91;5038315;28;45556;-60
2021/09/20 01:00:09;;;;;;;;;2.25;2.00;;;;;16.28;69.48;100969.72;5038156;28;45493;-60
2021/09/20 01:02:35;;;;;;;;;2.00;1.00;;;;;16.26;69.25;100966.41;5055988;28;45818;-60
2021/09/20 01:05:00;;;;;;;;;2.25;1.00;;;;;16.23;69.58;100972.84;5037874;28;52406;-60
2021/09/20 01:07:26;;;;;;;;;1.50;0.50;;;;;16.22;69.66;100965.88;5055689;28;59571;-60
2021/09/20 01:09:51;;;;;;;;;2.00;2.00;;;;;16.20;69.71;100967.06;5055281;28;66026;-60
2021/09/20 01:12:17;;;;;;;;;3.75;2.25;;;;;16.20;70.02;100967.88;5038055;28;45323;-60
2021/09/20 01:14:42;;;;;;;;;1.00;1.00;;;;;16.20;69.78;100967.88;5056025;28;45333;-60
2021/09/20 01:17:08;;;;;;;;;2.00;1.00;;;;;16.19;69.93;100966.22;5056237;28;45276;-60
2021/09/20 01:19:33;;;;;;;;;3.00;1.00;;;;;16.19;70.28;100960.09;5055254;28;67225;-60
2021/09/20 01:22:20;;;;;;;;;0.00;0.00;;;;;16.20;70.17;100961.75;5057294;28;45370;-60
2021/09/20 01:24:45;;;;;;;;;1.00;1.00;;;;;16.20;70.39;100959.09;5059523;28;45329;-61
2021/09/20 01:27:11;;;;;;;;;0.75;0.75;;;;;16.21;70.14;100958.13;5059564;28;45244;-60
2021/09/20 01:29:37;;;;;;;;;2.00;0.75;;;;;16.21;70.14;100955.47;5059214;28;45382;-60
2021/09/20 01:32:04;;;;;;;;;1.50;1.00;;;;;16.22;70.50;100957.13;5059247;28;45243;-61
2021/09/20 01:34:29;;;;;;;;;1.25;1.00;;;;;16.24;70.56;100957.78;5059331;28;45225;-60
2021/09/20 01:36:55;;;;;;;;;1.00;1.00;;;;;16.26;70.58;100961.09;5041295;28;45535;-61
2021/09/20 01:39:22;;;;;;;;;1.00;1.00;;;;;16.27;70.58;100955.63;5059205;28;46301;-60
2021/09/20 01:41:48;;;;;;;;;2.75;1.00;;;;;16.28;70.51;100956.47;5041506;28;45446;-60
2021/09/20 01:44:13;;;;;;;;;1.00;1.00;;;;;16.30;70.46;100967.75;5041372;28;45378;-61
2021/09/20 01:46:43;;;;;;;;;3.25;1.75;;;;;16.29;70.55;100950.19;5059172;28;45284;-59
2021/09/20 01:49:09;;;;;;;;;1.25;1.00;;;;;16.31;70.52;100948.19;5058994;28;46521;-60
2021/09/20 01:51:34;;;;;;;;;2.00;1.00;;;;;16.32;70.53;100957.81;5058959;28;45262;-60
2021/09/20 01:53:59;;;;;;;;;2.00;2.00;;;;;16.35;70.33;100951.34;5023626;28;60986;-60
2021/09/20 01:56:25;;;;;;;;;2.00;2.00;;;;;16.36;70.28;100956.50;5040336;28;61269;-61
2021/09/20 01:58:50;;;;;;;;;2.25;1.00;;;;;16.35;70.51;100944.22;5039933;28;70450;-61
2021/09/20 02:01:15;;;;;;;;;3.00;1.00;;;;;16.35;70.48;100949.53;5057999;28;67629;-60
2021/09/20 02:03:41;;;;;;;;;2.75;1.50;;;;;16.35;70.49;100943.38;5058949;28;45188;-60
2021/09/20 02:06:06;;;;;;;;;3.75;2.00;;;;;16.36;70.31;100948.53;5058208;28;59102;-61
2021/09/20 02:08:32;;;;;;;;;1.00;1.00;;;;;16.36;70.43;100945.03;5057775;28;70551;-60
2021/09/20 02:10:57;;;;;;;;;3.25;2.25;;;;;16.35;70.53;100946.88;5057827;28;72025;-60
2021/09/20 02:13:22;;;;;;;;;3.00;1.50;;;;;16.35;70.88;100938.06;5058287;28;54937;-61
2021/09/20 02:15:48;;;;;;;;;2.00;2.00;;;;;16.34;70.57;100947.88;5057641;28;68539;-60
2021/09/20 02:18:13;;;;;;;;;2.25;2.00;;;;;16.35;70.52;100941.56;5057988;28;55874;-60
2021/09/20 02:20:38;;;;;;;;;3.25;3.25;;;;;16.35;70.59;100940.72;5057793;28;65901;-60
2021/09/20 02:23:04;;;;;;;;;2.25;2.25;;;;;16.34;70.64;100937.25;5057903;28;59139;-61
2021/09/20 02:25:29;;;;;;;;;2.75;2.75;;;;;16.34;70.73;100933.75;5058619;28;45360;-60
2021/09/20 02:27:55;;;;;;;;;4.50;3.25;;;;;16.32;70.45;100933.94;5057510;28;68330;-60
2021/09/20 02:30:20;;;;;;;;;6.00;3.00;;;;;16.31;70.33;100937.59;5058493;28;45381;-60
2021/09/20 02:32:46;;;;;;;;;2.25;2.25;;;;;16.29;70.91;100936.91;5057210;28;63030;-60
2021/09/20 02:35:11;;;;;;;;;3.00;3.00;;;;;16.27;71.06;100938.91;5057356;28;69237;-60
2021/09/20 02:37:37;;;;;;;;;2.00;2.00;;;;;16.27;71.27;100933.59;5058261;28;46672;-60
2021/09/20 02:40:04;;;;;;;;;5.50;2.00;;;;;16.26;70.78;100935.41;5040227;28;45357;-60
2021/09/20 02:42:29;;;;;;;;;4.00;2.75;;;;;16.26;71.17;100945.19;5058338;28;45288;-60
2021/09/20 02:44:55;;;;;;;;;4.00;3.50;;;;;16.25;70.99;100933.75;5057546;28;66711;-60
2021/09/20 02:47:20;;;;;;;;;3.00;3.00;;;;;16.26;71.04;100934.59;5058084;28;46045;-61
2021/09/20 02:49:46;;;;;;;;;4.00;3.00;;;;;16.25;70.96;100933.75;5058114;28;45304;-60
2021/09/20 02:52:11;;;;;;;;;4.00;4.00;;;;;16.24;70.98;100934.75;5057426;28;67364;-61
2021/09/20 02:54:36;;;;;;;;;2.50;2.50;;;;;16.25;70.83;100932.94;5057363;28;62936;-60
2021/09/20 02:57:02;;;;;;;;;4.25;3.25;;;;;16.24;70.88;100934.75;5057090;28;66215;-60
2021/09/20 02:59:27;;;;;;;;;3.75;3.00;;;;;16.24;70.75;100933.94;5057857;28;47397;-60
2021/09/20 03:01:52;;;;;;;;;3.50;2.75;;;;;16.22;70.68;100933.25;5057143;28;64421;-60
2021/09/20 03:04:18;;;;;;;;;3.75;3.00;;;;;16.22;71.16;100933.25;5056985;28;67197;-60
2021/09/20 03:06:43;;;;;;;;;4.50;3.00;;;;;16.20;70.88;100937.91;5057025;28;64016;-60
2021/09/20 03:09:09;;;;;;;;;6.50;4.75;;;;;16.20;71.00;100936.06;5057561;28;50284;-60
2021/09/20 03:11:34;;;;;;;;;4.50;4.00;;;;;16.20;71.20;100943.19;5056982;28;64034;-60
2021/09/20 03:13:59;;;;;;;;;6.75;3.75;;;;;16.19;71.01;100941.53;5056905;28;63056;-60
2021/09/20 03:16:25;;;;;;;;;3.25;3.25;;;;;16.17;70.96;100939.88;5057614;28;45447;-60
2021/09/20 03:18:50;;;;;;;;;4.75;4.00;;;;;16.16;71.17;100943.53;5057115;28;45264;-60
2021/09/20 03:21:19;;;;;;;;;3.00;3.00;;;;;16.14;71.25;100934.91;5056808;28;60156;-60
2021/09/20 03:23:44;;;;;;;;;4.25;3.25;;;;;16.14;71.39;100944.69;5040166;28;45566;-60
2021/09/20 03:26:10;;;;;;;;;7.75;4.25;;;;;16.15;71.59;100946.34;5056910;28;46214;-60
2021/09/20 03:28:35;;;;;;;;;5.50;4.00;;;;;16.14;71.27;100945.50;5056567;28;71464;-60
2021/09/20 03:31:00;;;;;;;;;4.00;4.00;;;;;16.15;71.54;100944.50;5056742;28;63961;-60
2021/09/20 03:33:26;;;;;;;;;5.75;4.00;;;;;16.15;71.50;100944.50;5057040;28;54186;-60
2021/09/20 03:35:51;;;;;;;;;5.00;4.00;;;;;16.15;71.68;100949.81;5056436;28;66478;-60
2021/09/20 03:38:16;;;;;;;;;6.00;4.00;;;;;16.17;71.41;100954.94;5056696;28;61513;-60
2021/09/20 03:40:42;;;;;;;;;3.00;3.00;;;;;16.16;71.54;100955.97;5057281;28;45272;-60
2021/09/20 03:43:07;;;;;;;;;5.00;4.25;;;;;16.16;71.43;100951.47;5056883;28;45284;-60
2021/09/20 03:45:33;;;;;;;;;4.50;4.50;;;;;16.16;71.89;100951.47;5055991;28;65290;-61
2021/09/20 03:47:58;;;;;;;;;9.75;6.00;;;;;16.18;71.65;100953.94;5057299;28;45324;-60
2021/09/20 03:50:23;;;;;;;;;7.00;5.50;;;;;16.21;71.76;100952.81;5038544;28;65662;-60
2021/09/20 03:52:49;;;;;;;;;4.50;4.25;;;;;16.21;71.70;100952.81;5056218;28;69112;-60
2021/09/20 03:55:14;;;;;;;;;7.75;5.00;;;;;16.21;71.75;100950.97;5056365;28;46269;-60
2021/09/20 03:57:40;;;;;;;;;7.00;5.75;;;;;16.22;71.79;100960.59;5056383;28;60681;-61
2021/09/20 04:00:06;;;;;;;;;7.75;7.00;;;;;16.22;71.74;100957.94;5057157;28;45234;-60
2021/09/20 04:02:31;;;;;;;;;12.75;9.50;;;;;16.23;71.69;100953.47;5057054;28;45331;-61
2021/09/20 04:04:56;;;;;;;;;6.50;5.00;;;;;16.23;71.95;100956.94;5055906;28;70034;-60
2021/09/20 04:07:22;;;;;;;;;7.25;6.50;;;;;16.24;71.68;100957.78;5056054;28;63409;-60
2021/09/20 04:09:47;;;;;;;;;8.00;6.50;;;;;16.26;71.60;100950.50;5057038;28;45303;-60
2021/09/20 04:12:13;;;;;;;;;7.50;7.25;;;;;16.25;71.46;100949.66;5056898;28;45621;-60
2021/09/20 04:14:38;;;;;;;;;7.00;7.00;;;;;16.26;72.00;100955.81;5056582;28;46059;-60
2021/09/20 04:17:05;;;;;;;;;7.25;5.50;;;;;16.25;71.88;100948.84;5056351;28;45371;-60
2021/09/20 04:19:31;;;;;;;;;10.00;6.00;;;;;16.27;71.71;100954.81;5056939;28;45274;-60
2021/09/20 04:21:56;;;;;;;;;5.75;5.75;;;;;16.27;71.77;100952.16;5055624;28;67369;-61
2021/09/20 04:24:21;;;;;;;;;9.25;5.00;;;;;16.25;71.85;100949.66;5055874;28;69371;-60
2021/09/20 04:26:47;;;;;;;;;6.00;6.00;;;;;16.28;71.84;100954.63;5038017;28;64320;-61
2021/09/20 04:29:12;;;;;;;;;6.00;5.00;;;;;16.27;71.77;100957.47;5056650;28;45667;-61
2021/09/20 04:31:38;;;;;;;;;8.25;6.75;;;;;16.29;71.70;100958.13;5037822;28;62989;-60
2021/09/20 04:34:03;;;;;;;;;9.25;7.00;;;;;16.30;71.51;100962.44;5055579;28;68757;-60
2021/09/20 04:36:28;;;;;;;;;5.00;3.75;;;;;16.30;71.88;100957.13;5055570;28;65656;-60
2021/09/20 04:38:54;;;;;;;;;6.25;5.75;;;;;16.29;71.82;100956.28;5056342;28;45643;-60
2021/09/20 04:41:19;;;;;;;;;6.00;6.00;;;;;16.31;71.97;100959.63;5055470;28;59779;-60
2021/09/20 04:43:44;;;;;;;;;6.50;5.75;;;;;16.34;71.94;100958.47;5055326;28;68008;-60
2021/09/20 04:46:10;;;;;;;;;8.50;6.75;;;;;16.35;72.00;100960.13;5055420;28;63410;-60
2021/09/20 04:48:35;;;;;;;;;7.75;7.75;;;;;16.36;71.99;100948.53;5056116;28;45286;-60
2021/09/20 04:51:01;;;;;;;;;7.00;7.00;;;;;16.37;72.07;100957.31;5056272;28;45601;-60
2021/09/20 04:53:26;;;;;;;;;7.00;7.00;;;;;16.40;71.78;100960.47;5055289;28;66709;-61
2021/09/20 04:55:51;;;;;;;;;6.00;6.00;;;;;16.42;71.83;100962.94;5039090;28;54041;-60
2021/09/20 04:58:17;;;;;;;;;10.00;9.50;;;;;16.44;71.66;100964.44;5059379;28;45874;-61
2021/09/20 05:00:42;;;;;;;;;11.00;8.00;;;;;16.46;71.58;100967.75;5059703;28;45514;-60
2021/09/20 05:03:08;;;;;;;;;9.25;8.00;;;;;16.47;71.65;100964.09;5059509;28;46440;-60
2021/09/20 05:05:33;;;;;;;;;8.50;7.25;;;;;16.47;71.85;100964.09;5058673;28;64275;-59
2021/09/20 05:07:59;;;;;;;;;10.25;7.00;;;;;16.51;71.38;100974.38;5059679;28;45248;-61
2021/09/20 05:10:24;;;;;;;;;11.00;7.00;;;;;16.51;71.63;100969.94;5059640;28;45359;-60
2021/09/20 05:12:49;;;;;;;;;9.00;6.75;;;;;16.52;71.49;100974.25;5058965;28;57577;-60
2021/09/20 05:15:15;;;;;;;;;6.75;6.00;;;;;16.53;71.53;100975.91;5058499;28;62799;-60
2021/09/20 05:17:41;;;;;;;;;11.25;7.00;;;;;16.53;71.50;100978.53;5041229;28;45297;-60
2021/09/20 05:20:07;;;;;;;;;11.25;9.50;;;;;16.53;71.33;100978.53;5059378;28;45539;-60
2021/09/20 05:22:33;;;;;;;;;7.00;6.00;;;;;16.55;71.46;100986.31;5058865;28;45681;-60
2021/09/20 05:24:58;;;;;;;;;12.75;9.25;;;;;16.54;71.44;100985.50;5058525;28;62521;-60
2021/09/20 05:27:23;;;;;;;;;9.75;8.00;;;;;16.54;71.62;100984.66;5058349;28;66321;-60
2021/09/20 05:29:49;;;;;;;;;10.25;10.25;;;;;16.53;71.65;100989.16;5059259;28;45352;-60
2021/09/20 05:32:14;;;;;;;;;17.75;13.50;;;;;16.53;71.66;100989.16;5057928;28;66176;-61
2021/09/20 05:34:40;;;;;;;;;12.00;8.50;;;;;16.53;71.77;100989.16;5057838;28;69214;-60
2021/09/20 05:37:05;;;;;;;;;8.00;7.00;;;;;16.53;71.89;100999.78;5057735;28;65772;-60
2021/09/20 05:39:33;;;;;;;;;14.25;9.50;;;;;16.53;71.71;100994.47;5058811;28;45476;-60
2021/09/20 05:41:58;;;;;;;;;10.25;9.50;;;;;16.54;71.69;100992.63;5058382;28;45381;-60
2021/09/20 05:44:23;;;;;;;;;8.50;8.00;;;;;16.54;71.69;100985.50;5058308;28;45424;-60
2021/09/20 05:46:49;;;;;;;;;10.75;8.50;;;;;16.53;71.67;100993.63;5057000;28;59917;-60
2021/09/20 05:49:14;;;;;;;;;14.00;11.25;;;;;16.53;71.75;100996.28;5057227;28;45529;-60
2021/09/20 05:51:40;;;;;;;;;12.00;8.00;;;;;16.53;72.07;100994.47;5056749;28;70037;-61
2021/09/20 05:54:05;;;;;;;;;11.75;8.00;;;;;16.53;72.04;100994.47;5056916;28;71994;-60
2021/09/20 05:56:32;;;;;;;;;10.25;8.00;;;;;16.52;72.17;100992.81;5057615;28;45533;-60
2021/09/20 05:58:57;;;;;;;;;11.00;9.25;;;;;16.53;72.12;100996.28;5058187;28;45577;-60
2021/09/20 06:01:22;;;;;;;;;10.25;9.00;;;;;16.54;72.07;100996.13;5058651;28;46426;-59
2021/09/20 06:03:49;;;;;;;;;9.50;7.00;;;;;16.55;72.01;101000.44;5058129;28;65490;-60
2021/09/20 06:06:14;;;;;;;;;11.25;8.00;;;;;16.56;72.19;100993.28;5058321;28;45383;-60
2021/09/20 06:08:39;;;;;;;;;9.50;8.25;;;;;16.55;72.24;101002.25;5039750;28;61836;-60
2021/09/20 06:11:05;;;;;;;;;11.25;9.25;;;;;16.55;72.25;101008.41;5057912;28;63378;-60
2021/09/20 06:13:30;;;;;;;;;10.00;9.00;;;;;16.57;72.16;101013.53;5058057;28;45363;-60
2021/09/20 06:15:56;;;;;;;;;11.00;7.50;;;;;16.57;72.20;101010.88;5058350;28;45391;-60
2021/09/20 06:18:21;;;;;;;;;9.50;8.25;;;;;16.57;72.52;101009.06;5039553;28;59783;-60
2021/09/20 06:20:46;;;;;;;;;7.75;6.50;;;;;16.59;72.67;101015.03;5057513;28;71921;-60
2021/09/20 06:23:12;;;;;;;;;9.00;7.50;;;;;16.61;72.42;101012.19;5057951;28;45276;-60
2021/09/20 06:25:37;;;;;;;;;7.00;7.00;;;;;16.64;72.48;101011.88;5057929;28;45725;-60
2021/09/20 06:28:04;;;;;;;;;10.50;8.00;;;;;16.67;72.58;101016.84;5058442;28;45373;-61
2021/09/20 06:30:29;;;;;;;;;10.50;7.50;;;;;16.69;72.74;101020.16;5057053;28;45671;-59
2021/09/20 06:32:54;;;;;;;;;8.50;8.00;;;;;16.71;72.49;101017.34;5056745;28;72753;-60
2021/09/20 06:35:20;;;;;;;;;10.00;8.00;;;;;16.73;72.31;101016.19;5057162;28;61712;-60
2021/09/20 06:37:45;;;;;;;;;8.00;8.00;;;;;16.76;72.56;101020.34;5057815;28;45258;-60
2021/09/20 06:40:11;;;;;;;;;10.25;5.50;;;;;16.78;72.56;101018.34;5056890;28;70057;-60
2021/09/20 06:42:36;;;;;;;;;12.50;10.75;;;;;16.81;72.49;101028.63;5057771;28;45321;-60
2021/09/20 06:45:02;;;;;;;;;7.50;7.50;;;;;16.83;72.54;101024.00;5057907;28;45510;-60
2021/09/20 06:47:27;;;;;;;;;8.50;7.00;;;;;16.85;72.75;101031.81;5040218;28;45366;-60
2021/09/20 06:49:53;;;;;;;;;10.25;7.25;;;;;16.86;72.53;101025.50;5056930;28;70621;-60
2021/09/20 06:52:18;;;;;;;;;7.25;6.00;;;;;16.88;72.53;101034.94;5057077;28;62935;-60
2021/09/20 06:54:43;;;;;;;;;9.25;8.00;;;;;16.92;72.39;101040.75;5056941;28;67016;-60
2021/09/20 06:57:09;;;;;;;;;10.50;9.00;;;;;16.92;72.35;101033.63;5057001;28;60762;-60
2021/09/20 06:59:34;;;;;;;;;11.50;8.00;;;;;16.96;72.37;101039.44;5039383;28;45375;-60
2021/09/20 07:02:00;;;;;;;;;9.50;9.00;;;;;16.99;72.66;101051.56;5056676;28;69051;-60
2021/09/20 07:04:25;;;;;;;;;12.50;9.50;;;;;16.99;72.33;101047.06;5057554;28;45316;-60
2021/09/20 07:06:50;;;;;;;;;13.75;9.00;;;;;17.02;72.38;101051.25;5056360;28;70224;-61
2021/09/20 07:09:16;;;;;;;;;11.50;7.75;;;;;17.01;72.42;101049.59;5056737;28;71602;-60
2021/09/20 07:11:42;;;;;;;;;12.25;9.25;;;;;17.03;72.25;101052.91;5057567;28;47169;-60
2021/09/20 07:14:07;;;;;;;;;11.25;10.00;;;;;17.05;72.27;101051.72;5057568;28;45340;-60
2021/09/20 07:16:32;;;;;;;;;10.50;8.00;;;;;17.06;72.20;101048.06;5056750;28;68228;-60
2021/09/20 07:18:58;;;;;;;;;11.25;9.00;;;;;17.08;72.32;101058.53;5056504;28;67756;-60
2021/09/20 07:21:24;;;;;;;;;9.75;9.25;;;;;17.09;72.23;101056.72;5056868;28;45579;-61
2021/09/20 07:23:50;;;;;;;;;12.00;10.50;;;;;17.10;72.14;101055.72;5039299;28;45253;-60
2021/09/20 07:26:17;;;;;;;;;16.25;11.25;;;;;17.14;72.15;101054.38;5057389;28;45169;-60
2021/09/20 07:28:42;;;;;;;;;11.00;9.50;;;;;17.14;72.30;101060.53;5057159;28;46927;-60
2021/09/20 07:31:07;;;;;;;;;11.50;10.75;;;;;17.16;72.07;101057.69;5056638;28;64007;-60
2021/09/20 07:33:33;;;;;;;;;12.00;11.75;;;;;17.18;72.06;101059.22;5056516;28;63756;-60
2021/09/20 07:35:58;;;;;;;;;10.75;10.75;;;;;17.23;72.24;101063.16;5056371;28;68103;-60
2021/09/20 07:38:24;;;;;;;;;11.75;11.00;;;;;17.25;72.49;101058.50;5056976;28;50249;-60
2021/09/20 07:40:49;;;;;;;;;15.25;11.50;;;;;17.29;72.24;101063.34;5057300;28;45785;-60
2021/09/20 07:43:14;;;;;;;;;17.75;12.25;;;;;17.33;72.33;101064.66;5057228;28;45378;-60
2021/09/20 07:45:40;;;;;;;;;12.75;10.50;;;;;17.37;72.16;101064.34;5057267;28;46191;-60
2021/09/20 07:48:05;;;;;;;;;15.75;12.25;;;;;17.41;71.89;101060.34;5057017;28;46174;-60
2021/09/20 07:50:31;;;;;;;;;13.75;12.75;;;;;17.43;71.54;101063.66;5057261;28;45431;-59
2021/09/20 07:52:56;;;;;;;;;14.25;11.50;;;;;17.44;71.57;101065.31;5056455;28;60674;-60
2021/09/20 07:55:21;;;;;;;;;11.25;9.25;;;;;17.46;71.56;101073.97;5056649;28;53922;-60
2021/09/20 07:57:47;;;;;;;;;13.75;12.50;;;;;17.47;71.50;101070.31;5057030;28;46889;-60
2021/09/20 08:00:13;;;;;;;;;14.75;14.25;;;;;17.52;71.42;101073.25;5056998;28;45359;-60
2021/09/20 08:02:38;;;;;;;;;13.25;12.75;;;;;17.54;71.03;101076.56;5056837;28;45950;-60
2021/09/20 08:05:04;;;;;;;;;15.50;15.25;;;;;17.56;71.74;101074.56;5038783;28;45620;-61
2021/09/20 08:07:29;;;;;;;;;14.25;12.25;;;;;17.58;71.76;101077.91;5056696;28;46566;-60
2021/09/20 08:09:55;;;;;;;;;15.00;12.00;;;;;17.60;71.34;101080.41;5056366;28;54801;-60
2021/09/20 08:12:20;;;;;;;;;14.25;11.25;;;;;17.61;71.34;101082.06;5057029;28;45212;-60
2021/09/20 08:14:45;;;;;;;;;16.25;13.00;;;;;17.63;71.63;101085.38;5055792;28;66211;-60
2021/09/20 08:17:11;;;;;;;;;12.00;12.00;;;;;17.64;71.33;101093.16;5055830;28;63175;-60
2021/09/20 08:19:37;;;;;;;;;18.25;12.50;;;;;17.69;71.16;101097.16;5056647;28;45245;-60
2021/09/20 08:22:02;;;;;;;;;14.75;13.00;;;;;17.70;71.25;101097.00;5056490;28;45427;-60
2021/09/20 08:24:27;;;;;;;;;16.00;14.75;;;;;17.75;71.05;101105.25;5056626;28;45346;-60
2021/09/20 08:26:53;;;;;;;;;13.00;12.50;;;;;17.77;71.14;101102.44;5055613;28;70007;-60
2021/09/20 08:29:18;;;;;;;;;13.75;10.50;;;;;17.83;71.03;101100.94;5055177;28;66805;-60
2021/09/20 08:31:43;;;;;;;;;14.50;12.25;;;;;17.86;71.31;101104.09;5054951;28;63896;-60
2021/09/20 08:34:09;;;;;;;;;12.50;11.50;;;;;17.90;71.00;101104.56;5055861;28;45384;-59
2021/09/20 08:36:34;;;;;;;;;15.75;13.25;;;;;17.93;70.73;101107.72;5055520;28;50808;-60
2021/09/20 08:39:00;;;;;;;;;12.50;10.25;;;;;17.95;70.48;101108.41;5055538;28;45368;-60
2021/09/20 08:41:25;;;;;;;;;15.25;13.75;;;;;17.99;70.88;101113.38;5056145;28;45425;-60
2021/09/20 08:43:50;;;;;;;;;13.25;11.50;;;;;18.04;70.49;101108.38;5037152;28;61575;-60
2021/09/20 08:46:16;;;;;;;;;15.50;14.00;;;;;18.06;70.32;101107.22;5054966;28;64700;-60
2021/09/20 08:48:43;;;;;;;;;15.50;13.75;;;;;18.11;70.21;101109.34;5055185;28;67404;-60
2021/09/20 08:51:09;;;;;;;;;13.75;11.25;;;;;18.14;69.98;101116.97;5056282;28;45406;-60
2021/09/20 08:53:34;;;;;;;;;14.50;12.75;;;;;18.14;69.45;101114.31;5056243;28;45589;-60
2021/09/20 08:56:00;;;;;;;;;17.25;12.25;;;;;18.15;69.11;101123.97;5054973;28;67598;-60
2021/09/20 08:58:26;;;;;;;;;11.00;9.75;;;;;18.15;69.15;101121.31;5056065;28;45300;-61
2021/09/20 09:00:51;;;;;;;;;14.00;10.25;;;;;18.17;69.75;101126.47;5055972;28;45296;-60
2021/09/20 09:03:24;;;;;;;;;12.50;12.50;;;;;18.18;69.77;101126.28;5038015;28;45213;-60
2021/09/20 09:05:49;;;;;;;;;13.50;12.50;;;;;18.21;69.34;101120.63;5055895;28;46809;-60
2021/09/20 09:08:17;;;;;;;;;12.00;11.75;;;;;18.25;69.53;101131.75;5037887;28;45294;-60
2021/09/20 09:10:44;;;;;;;;;13.00;12.25;;;;;18.27;69.59;101132.41;5037749;28;45324;-60
2021/09/20 09:13:11;;;;;;;;;14.25;12.75;;;;;18.30;69.38;101133.88;5037840;28;45427;-61
2021/09/20 09:15:36;;;;;;;;;13.75;12.25;;;;;18.33;68.80;101134.34;5055575;28;45466;-60
2021/09/20 09:18:03;;;;;;;;;12.50;11.25;;;;;18.34;69.18;101136.03;5055781;28;45362;-60
2021/09/20 09:20:31;;;;;;;;;12.75;10.75;;;;;18.37;68.92;101140.19;5021952;28;45399;-60
2021/09/20 09:23:04;;;;;;;;;10.00;10.00;;;;;18.37;69.05;101141.00;5055074;28;45629;-60
2021/09/20 09:25:36;;;;;;;;;12.00;10.50;;;;;18.41;69.18;101140.66;5037218;28;46349;-59
2021/09/20 09:28:14;;;;;;;;;14.25;11.25;;;;;18.40;68.93;101137.19;5055436;28;45880;-62
2021/09/20 09:30:42;;;;;;;;;15.25;12.25;;;;;18.44;68.95;101146.47;5021542;28;45345;-62
2021/09/20 09:33:09;;;;;;;;;12.25;10.00;;;;;18.48;68.65;101153.09;5055715;28;45471;-59
2021/09/20 09:35:34;;;;;;;;;9.00;9.00;;;;;18.52;68.46;101159.75;5055373;28;46465;-62
2021/09/20 09:38:05;;;;;;;;;12.00;9.50;;;;;18.56;68.46;101157.56;5055363;28;45412;-59
2021/09/20 09:40:30;;;;;;;;;13.00;11.50;;;;;18.62;68.15;101158.69;5055503;28;45225;-61
2021/09/20 09:43:00;;;;;;;;;12.50;12.50;;;;;18.66;67.74;101160.00;5039710;28;45680;-62
2021/09/20 09:45:29;;;;;;;;;11.50;10.25;;;;;18.68;67.90;101150.84;5040779;28;45521;-62
2021/09/20 09:48:11;;;;;;;;;10.00;10.00;;;;;18.72;67.76;101156.63;5040796;28;45814;-61
2021/09/20 09:51:00;;;;;;;;;10.50;8.75;;;;;18.74;68.20;101151.97;5058538;28;45357;-61
2021/09/20 09:53:33;;;;;;;;;10.25;10.00;;;;;18.77;67.92;101151.63;5058507;28;45351;-62
2021/09/20 09:56:20;;;;;;;;;13.00;9.75;;;;;18.81;68.29;101152.13;5058312;28;46407;-61
2021/09/20 09:59:02;;;;;;;;;12.50;10.25;;;;;18.86;68.66;101151.56;5040514;28;45321;-58
2021/09/20 10:01:35;;;;;;;;;14.25;12.25;;;;;18.91;68.68;101154.53;5040618;28;45278;-59
2021/09/20 10:04:05;;;;;;;;;12.50;12.50;;;;;18.97;68.23;101153.88;5041104;28;45465;-59
2021/09/20 10:06:52;;;;;;;;;14.50;13.25;;;;;19.01;67.47;101160.50;5058616;28;45324;-59
2021/09/20 10:09:28;;;;;;;;;13.25;10.75;;;;;19.03;67.40;101155.84;5058271;28;45349;-60
2021/09/20 10:11:55;;;;;;;;;11.00;10.25;;;;;19.06;67.39;101158.13;5058462;28;45367;-60
2021/09/20 10:14:21;;;;;;;;;12.50;11.25;;;;;19.07;67.26;101165.13;5058169;28;45414;-60
2021/09/20 10:16:53;;;;;;;;;11.25;10.00;;;;;19.09;67.37;101160.41;5058373;28;45451;-60
2021/09/20 10:19:19;;;;;;;;;16.00;12.25;;;;;19.11;67.20;101169.06;5058458;28;45759;-60
2021/09/20 10:21:44;;;;;;;;;18.25;15.00;;;;;19.11;67.28;101163.75;5058015;28;45309;-60
2021/09/20 10:24:10;;;;;;;;;13.75;13.75;;;;;19.11;67.57;101161.06;5039881;28;45321;-60
2021/09/20 10:26:35;;;;;;;;;16.00;12.75;;;;;19.11;67.44;101166.41;5057440;28;58552;-60
2021/09/20 10:29:04;;;;;;;;;15.50;11.50;;;;;19.12;67.29;101168.06;5057116;28;61913;-60
2021/09/20 10:31:30;;;;;;;;;12.75;11.00;;;;;19.13;67.17;101163.56;5040006;28;45296;-60
2021/09/20 10:34:24;;;;;;;;;12.25;12.25;;;;;19.14;67.31;101170.56;5038806;28;65380;-60
2021/09/20 10:37:00;;;;;;;;;17.50;13.00;;;;;19.16;67.22;101167.72;5039581;28;47239;-60
2021/09/20 10:39:50;;;;;;;;;14.75;12.75;;;;;19.16;67.47;101167.72;5057796;28;45274;-60
2021/09/20 10:42:33;;;;;;;;;13.75;11.50;;;;;19.18;67.26;101171.88;5058038;28;45532;-60
2021/09/20 10:44:59;;;;;;;;;16.50;16.00;;;;;19.19;66.96;101173.53;5058002;28;45705;-60
2021/09/20 10:47:26;;;;;;;;;15.00;13.75;;;;;19.17;67.17;101167.53;5039523;28;47159;-59
2021/09/20 10:49:52;;;;;;;;;17.25;15.00;;;;;19.17;67.31;101169.38;5023327;28;45427;-59
2021/09/20 10:52:17;;;;;;;;;18.75;14.25;;;;;19.16;67.59;101176.53;5057787;28;45436;-60
2021/09/20 10:55:08;;;;;;;;;17.00;15.25;;;;;19.16;68.11;101173.03;5057287;28;45288;-59
2021/09/20 10:57:33;;;;;;;;;14.25;11.00;;;;;19.18;67.56;101171.03;5039582;28;47310;-60
2021/09/20 11:00:28;;;;;;;;;15.75;11.75;;;;;19.21;68.00;101178.66;5057667;28;45354;-60
2021/09/20 11:02:53;;;;;;;;;13.75;13.50;;;;;19.22;67.24;101181.16;5044350;28;45407;-60
2021/09/20 11:05:24;;;;;;;;;14.00;14.00;;;;;19.24;67.21;101172.97;5038960;28;62040;-60
2021/09/20 11:07:50;;;;;;;;;15.25;14.00;;;;;19.24;67.25;101165.84;5039436;28;46162;-62
2021/09/20 11:10:15;;;;;;;;;14.75;13.50;;;;;19.24;67.10;101173.81;5056345;28;70736;-62
2021/09/20 11:13:00;;;;;;;;;18.50;15.75;;;;;19.24;67.22;101178.31;5057547;28;45226;-61
2021/09/20 11:15:26;;;;;;;;;14.50;14.00;;;;;19.24;67.67;101178.31;5057108;28;45509;-61
2021/09/20 11:17:51;;;;;;;;;13.25;11.75;;;;;19.21;67.46;101182.16;5057143;28;46243;-62